PAE - Seattle Paine Fld Intl

Pirep is a free, collaborative database of all public and private airports located within the United States. All pilots are welcome to contribute, edit, and improve any airport they have local knowledge about, no registration required.
Uploaded photos will be licensed under a CC BY-SA 4.0 license. Please only upload photos you have the rights to use.
Tags
Public
Museum
Webcam
Flying Clubs
Events
METAR / TAF
Edit Tags
Food
Camping
Lodging
Car Rental
Bicycles
Swimming
Golfing
Fishing
Hot Springs
Airpark
Upcoming Events
*
*
*

Where exactly on/near the airport is this event taking place?

Is there a webpage with more information for this event?

Who should be contacted for more information?

What is this event all about?

Repeat every
Description
Last updated: 2024-03-18 23:17:24 PDT
Transient Parking
Last updated: 2023-04-18 11:49:22 PDT
Fuel Location
Last updated: 2023-04-18 11:49:22 PDT
Landing & Tie-down Fees
Last updated: 2023-04-18 11:49:22 PDT
Crew Car Availability
Flying Clubs
Last updated: 2023-10-18 20:32:54 PDT
WiFi Access
Airport Statistics
Location: Everett, WA
Elevation: 606ft
Sectional: Seattle
Activation date: Nov 1938
Fuel: 100LL, A (prices)
Runway 16R/34L: 9,010ft
Runway 16L/34R: 3,004ft
Access: Open to the public
Current Weather — VFR
  • Weather data is strictly informational and not for flight planning purposes.
  • METAR
    2024-04-21 22:53:00 PDT
    Ceiling Wind Temperature Dewpoint Weather Visbility
    6,000ft 360° @ 7kt 48°F 35°F N/A 10SM
    Clouds: Overcast @ 6,000ft
    Raw: KPAE 220553Z AUTO 36007KT 10SM OVC060 09/02 A3030 RMK AO2 SLP264 T00890022 10128 20089 58007
  • TAF
    2024-04-21 23:00:00 PDT – 2024-04-22 02:00:00 PDT
    Ceiling Wind Weather Visbility
    5,000ft 360° @ 6kt N/A 6SM
    Clouds: Broken @ 5,000ft
    Raw: KPAE 220520Z 2206/2306 36006KT P6SM BKN050 FM220900 35004KT P6SM FEW050 FM221900 34007KT P6SM FEW200
  • TAF
    2024-04-22 02:00:00 PDT – 2024-04-22 12:00:00 PDT
    Ceiling Wind Weather Visbility
    Sky clear 350° @ 4kt N/A 6SM
    Clouds: Few @ 5,000ft
    Raw: KPAE 220520Z 2206/2306 36006KT P6SM BKN050 FM220900 35004KT P6SM FEW050 FM221900 34007KT P6SM FEW200
  • TAF
    2024-04-22 12:00:00 PDT – 2024-04-22 23:00:00 PDT
    Ceiling Wind Weather Visbility
    Sky clear 340° @ 7kt N/A 6SM
    Clouds: Few @ 20,000ft
    Raw: KPAE 220520Z 2206/2306 36006KT P6SM BKN050 FM220900 35004KT P6SM FEW050 FM221900 34007KT P6SM FEW200
Click/tap to add an annotation marker to the map
Airport Webcam
Direct links to live image URLs will be displayed inline on this page. URLs to separate webpages will be linked to.
URL:
Direct links to live image URLs will be displayed inline on this page. URLs to separate webpages will be linked to.
URL:
Remarks
  • Estabd prior to 15 may 1959.
  • Arpt clsd to unsked acr opns with more than 30 psgr seats 2100-0700 excp ppr ctc arpt ops 425-388-5125.
  • Rwy 16l/34r clsd btn 0500-1500z.
  • Noise sensitive arpt; for noise abatement proc & tfc proc call arpt ops 425-388-5125.
  • It is req that pilots adhere to the flw noise abatement proc unless otrw instrd by atct, itnrnt arr and low apch of sml acft over 250 horsepower auz on rwys 16l and 34r.
Comments
Leave a comment What was your experience like at this airport?